East Worcester, NY (12064)

11:04 PM EDT on October 25, 2014 (GMT -0400)
Worcester Farm | Change Station
CLOSE
Current Station
Personal Weather Station
Location: Worcester, NY
Elevation: 1759 ft
Nearby Weather Stations

Elev 1759 ft 42.62 °N, 74.75 °W | Updated 9 minutes ago

Partly Cloudy
Partly Cloudy
49.3 °F
Feels Like 49 °F
N
1.0
Wind Variable Wind from NNW
Gusts 8.0 mph

Today
High -- | Low -- °F
--% Chance of Precip.
Yesterday
High -- | Low -- °F
Precip. -- in
7:23 AM 6:01 PM
Waxing Crescent, 5% visible
Pressure 29.56 in
Visibility 10.0 miles
Clouds Few 7500 ft
Windchill 49 °F
Dew Point 44 °F
Humidity 83%
Rainfall 0.00 in
Snow Depth Not available.
UV 0 out of 12
Pollen .70 out of 12
Ozone Good
PM2.5 Moderate
Flu Activity Sporadic
METAR KALB 260251Z 25007KT 10SM FEW075 12/08 A2956 RMK AO2 SLP009 60001 T01170083 51006 $

More Conditions Fewer Conditions

Pressure 29.56 in
Visibility 10.0 miles
Clouds Few 7500 ft
Windchill 49 °F
Dew Point 44 °F
Humidity 83%
Rainfall 0.00 in
Snow Depth Not available.
UV 0 out of 12
Pollen .70 out of 12
Ozone Good
PM2.5 Moderate
Flu Activity Sporadic
METAR KALB 260251Z 25007KT 10SM FEW075 12/08 A2956 RMK AO2 SLP009 60001 T01170083 51006 $

More Conditions Fewer Conditions

Nowcast | as of 9:46 PM EDT on October 25, 2014

Rain showers are possible tonight across portions of central New York and northeast Pennsylvania for the next few hours. These showers are moving to the southeast. A rumble of thunder is possible with these showers. Accumulations around a tenth of an inch are possible.

×

10-Day Weather Forecast

Almanac

Astronomy

Oct. 25, 2014 Rise Set
Actual Time 7:23 AM EDT 6:01 PM EDT
Civil Twilight 6:54 AM EDT 6:29 PM EDT
Nautical Twilight 6:21 AM EDT 7:02 PM EDT
Astronomical Twilight 5:49 AM EDT 7:35 PM EDT
Moon 9:01 AM EDT (10/25) 7:20 PM EDT (10/25)
Length of Visible Light 11h 35m
Length of Day
10h 37m
Tomorrow will be 2m 40s shorter.
Waxing Crescent, 5% of the Moon is Illuminated
Today
Waxing Crescent
Oct 30
First Quarter
Nov 6
Full
Nov 14
Last Quarter
Nov 22
New

Today's Extremes

State Highs State Lows

Community

WunderPhotos

Upload Photos

1,765,091 photos uploaded!

Nearby

Air Quality

  Air Quality AQ Index Pollutant
Yesterday Good
OZONE
Yesterday Good
PM2.5
Current Moderate
PM2.5
Current Good
OZONE
Saturday Good
PM2.5
Sunday Good
PM2.5
Monday Good
PM2.5

Snow Depth

Station Depth Elevation
No new snow has been reported.

Earthquake Activity

City Distance Mag. Time & Date
No recent earthquake activity has been reported nearby.
Minimum magnitude displayed is 2.5.

Coastal Water Temperatures

Place Temperature
No Stations Reporting

Nearby Weather Stations